Flight Track Log - Related Links

Times and Time Zones

All times are in EDT time to prevent confusion due to time zone crossing. See the N208CV flight status page for this flight to view local times or setup timezone preferences in your user account.

Time Position Orientation Groundspeed Altitude Reporting Facility
EDT Latitude Longitude Course Direction KTS MPH feet Rate Location/Type
Tue 08:39:15 PM 33.8322 -118.1911 283° West  Level FlightAware Approximate
Tue 08:40:15 PM 33.8438 -118.2228 277° West  Level FlightAware Approximate
Tue 08:41:31 PM 33.8500 -118.2833 292° West 129 148 3,600  Level Southern California TRACON
Tue 08:42:31 PM 33.8667 -118.3333 320° Northwest 128 147 4,700 1,000 Climbing Southern California TRACON
Tue 08:43:31 PM 33.9000 -118.3667 320° Northwest 107 123 5,600 650 Climbing Southern California TRACON
Tue 08:44:31 PM 33.9167 -118.3833 315° West 112 129 6,000 100 Climbing Southern California TRACON
Tue 08:47:32 PM 34.0000 -118.4833 292° West 153 176 6,000  Level Southern California TRACON
Tue 08:48:32 PM 34.0167 -118.5333 270° West 146 168 6,000  Level Southern California TRACON
Tue 08:49:33 PM 34.0167 -118.5833 292° West 148 170 6,000  Level Southern California TRACON
Tue 08:50:33 PM 34.0333 -118.6333 292° West 149 171 6,000  Level Southern California TRACON
Tue 08:51:33 PM 34.0500 -118.6833 270° West 149 171 6,000  Level Southern California TRACON
Tue 08:52:34 PM 34.0500 -118.7333 292° West 149 171 6,000  Level Southern California TRACON
Tue 08:53:34 PM 34.0667 -118.7833 270° West 148 170 6,000  Level Southern California TRACON
Tue 08:54:34 PM 34.0667 -118.8333 290° West 151 174 6,000 -65 Level Southern California TRACON
Tue 09:02:47 PM 34.1858 -119.2250 296° West 159 183 5,400 -134 Descending Los Angeles Center
Tue 09:04:18 PM 34.2172 -119.3014 297° West 166 191 4,700 -474 Descending Los Angeles Center
Tue 09:05:19 PM 34.2389 -119.3525 283° West 173 199 4,200 -347 Descending Los Angeles Center
Tue 09:06:19 PM 34.2500 -119.4108 262° West 175 201 4,000 -298 Descending Los Angeles Center
Tue 09:07:20 PM 34.2442 -119.4633 271° West 172 198 3,600 -397 Descending Los Angeles Center
Tue 09:08:20 PM 34.2447 -119.5236 339° North 176 203 3,200 -298 Descending Los Angeles Center
Tue 09:09:21 PM 34.2858 -119.5431 324° Northwest 168 193 3,000 -246 Descending Los Angeles Center
Tue 09:10:22 PM 34.3247 -119.5772 303° West 165 190 2,700 -365 Descending Los Angeles Center
Tue 09:11:16 PM 34.3464 -119.6183 295° West 159 183 2,300 -298 Descending Los Angeles Center
Tue 09:12:23 PM 34.3678 -119.6747 298° West 159 183 2,100 -94 Descending Los Angeles Center
Tue 09:13:24 PM 34.3872 -119.7183 292° West 155 178 2,100 -417 Level Los Angeles Center
Tue 09:14:18 PM 34.4025 -119.7642 304° West 151 174 1,300 -771 Descending Los Angeles Center
Tue 09:15:13 PM 34.4225 -119.8003 304° West 139 160 700 -655 Descending Los Angeles Center

Login

Don't have an account? Register now (free) for customized features, flight alerts, and more!